Time;durP1;ratioP1;P1;durP2;ratioP2;P2;SDS_P1;SDS_P2;PMS_P1;PMS_P2;Temp;Humidity;BMP_temperature;BMP_pressure;BME280_temperature;BME280_humidity;BME280_pressure;Samples;Min_cycle;Max_cycle;Signal;HPM_P1;HPM_P2
2022/05/03 00:02:10;;;;;;;;;;;;;;;10.08;61.15;101950.47;5012070;28;19984;-34
2022/05/03 00:04:45;;;;;;;;;;;;;;;10.04;59.81;101955.44;5012883;28;19964;-34
2022/05/03 00:07:29;;;;;;;;;;;;;;;10.00;60.15;101950.66;5015278;28;19945;-34
2022/05/03 00:09:54;;;;;;;;;;;;;;;9.99;59.79;101951.69;5015246;28;19914;-34
2022/05/03 00:12:27;;;;;;;;;;;;;;;9.94;59.11;101951.44;5015212;28;20332;-34
2022/05/03 00:14:55;;;;;;;;;;;;;;;9.92;60.98;101958.94;5015111;28;19920;-34
2022/05/03 00:17:22;;;;;;;;;;;;;;;9.87;60.54;101951.44;5015041;28;19960;-34
2022/05/03 00:19:48;;;;;;;;;;;;;;;9.86;61.90;101946.19;5014990;28;20301;-34
2022/05/03 00:22:13;;;;;;;;;;;;;;;9.82;60.46;101948.50;5015089;28;20004;-34
2022/05/03 00:24:39;;;;;;;;;;;;;;;9.77;60.26;101940.16;5015572;28;19913;-34
2022/05/03 00:27:04;;;;;;;;;;;;;;;9.73;60.25;101947.81;5015797;28;19920;-34
2022/05/03 00:29:32;;;;;;;;;;;;;;;9.70;61.45;101937.38;5014930;28;19913;-34
2022/05/03 00:31:58;;;;;;;;;;;;;;;9.67;61.06;101939.66;5014950;28;20023;-34
2022/05/03 00:34:23;;;;;;;;;;;;;;;9.66;61.87;101933.44;5014827;28;19920;-34
2022/05/03 00:36:49;;;;;;;;;;;;;;;9.62;60.94;101934.03;5066199;28;19912;-34
2022/05/03 00:39:14;;;;;;;;;;;;;;;9.60;60.31;101930.69;5097147;28;19912;-34
2022/05/03 00:41:44;;;;;;;;;;;;;;;9.58;60.27;101930.06;5096781;28;19937;-34
2022/05/03 00:47:18;;;;;;;;;;;;;;;9.48;60.63;101933.94;5096805;28;19919;-34
2022/05/03 00:49:59;;;;;;;;;;;;;;;9.42;61.62;101928.47;5097374;28;20313;-34
2022/05/03 00:52:34;;;;;;;;;;;;;;;9.34;61.41;101932.16;5096917;28;19961;-34
2022/05/03 00:55:09;;;;;;;;;;;;;;;9.30;60.61;101933.59;5096757;28;19908;-34
2022/05/03 00:57:52;;;;;;;;;;;;;;;9.26;62.03;101933.13;5096558;28;19912;-34
2022/05/03 01:00:20;;;;;;;;;;;;;;;9.22;61.56;101939.97;5097294;28;19914;-34
2022/05/03 01:02:56;;;;;;;;;;;;;;;9.21;61.13;101943.69;5096615;28;19919;-34
2022/05/03 01:05:26;;;;;;;;;;;;;;;9.20;62.03;101941.19;5097109;28;19977;-34
2022/05/03 01:07:51;;;;;;;;;;;;;;;9.20;61.94;101943.88;5096875;28;19957;-34
2022/05/03 01:10:28;;;;;;;;;;;;;;;9.15;61.59;101935.53;5096157;28;19920;-34
2022/05/03 01:13:16;;;;;;;;;;;;;;;9.11;62.03;101936.97;5078894;28;19912;-34
2022/05/03 01:15:44;;;;;;;;;;;;;;;9.07;61.70;101938.38;5014064;28;19972;-34
2022/05/03 01:18:21;;;;;;;;;;;;;;;9.03;61.52;101937.94;5014316;28;19944;-34
2022/05/03 01:20:52;;;;;;;;;;;;;;;9.01;61.74;101938.13;5014170;28;19944;-34
2022/05/03 01:23:18;;;;;;;;;;;;;;;8.96;62.84;101940.56;5014032;28;20002;-34
2022/05/03 01:25:55;;;;;;;;;;;;;;;8.92;62.92;101939.28;5014422;28;19960;-34
2022/05/03 01:28:30;;;;;;;;;;;;;;;8.87;62.12;101936.31;5013695;28;19919;-34
2022/05/03 01:31:09;;;;;;;;;;;;;;;8.84;62.90;101934.03;5013804;28;19909;-34
2022/05/03 01:33:38;;;;;;;;;;;;;;;8.80;62.86;101940.00;5013974;28;19914;-34
2022/05/03 01:36:06;;;;;;;;;;;;;;;8.79;62.86;101941.03;5013788;28;19963;-34
2022/05/03 01:38:34;;;;;;;;;;;;;;;8.77;63.03;101935.81;5014175;28;19919;-34
2022/05/03 01:40:59;;;;;;;;;;;;;;;8.75;63.08;101936.03;5013890;28;20008;-34
2022/05/03 01:43:40;;;;;;;;;;;;;;;8.74;62.92;101928.13;5013568;28;20417;-34
2022/05/03 01:46:14;;;;;;;;;;;;;;;8.70;63.21;101933.06;5013552;28;20385;-34
2022/05/03 01:51:44;;;;;;;;;;;;;;;8.65;62.46;101926.59;5014569;28;19979;-34
2022/05/03 01:54:32;;;;;;;;;;;;;;;8.62;63.39;101935.88;5095936;28;19958;-34
2022/05/03 01:57:04;;;;;;;;;;;;;;;8.58;63.48;101929.19;5094458;28;19924;-34
2022/05/03 01:59:41;;;;;;;;;;;;;;;8.55;63.18;101934.16;5095273;28;19912;-34
2022/05/03 02:02:17;;;;;;;;;;;;;;;8.51;63.22;101929.13;5095605;28;19920;-33
2022/05/03 02:04:57;;;;;;;;;;;;;;;8.49;63.85;101924.94;5095733;28;19912;-34
2022/05/03 02:07:34;;;;;;;;;;;;;;;8.44;63.28;101928.22;5096208;28;19912;-34
2022/05/03 02:10:03;;;;;;;;;;;;;;;8.42;63.33;101927.56;5095420;28;20014;-34
2022/05/03 02:12:28;;;;;;;;;;;;;;;8.40;63.66;101926.13;5095614;28;20014;-34
2022/05/03 02:14:55;;;;;;;;;;;;;;;8.40;63.21;101926.13;5094919;28;20360;-34
2022/05/03 02:17:35;;;;;;;;;;;;;;;8.39;63.28;101932.50;5095815;28;19916;-34
2022/05/03 02:20:16;;;;;;;;;;;;;;;8.34;63.58;101927.66;5094855;28;20459;-34
2022/05/03 02:23:00;;;;;;;;;;;;;;;8.30;63.83;101928.25;5095897;28;19912;-34
2022/05/03 02:25:43;;;;;;;;;;;;;;;8.24;63.23;101924.41;5094943;28;19919;-34
2022/05/03 02:28:13;;;;;;;;;;;;;;;8.20;63.92;101918.59;5094992;28;19912;-34
2022/05/03 02:30:39;;;;;;;;;;;;;;;8.18;64.12;101919.78;5094868;28;20003;-34
2022/05/03 02:33:04;;;;;;;;;;;;;;;8.16;63.99;101919.16;5096008;28;19995;-34
2022/05/03 02:35:31;;;;;;;;;;;;;;;8.12;63.07;101921.38;5094908;28;20391;-34
2022/05/03 02:37:57;;;;;;;;;;;;;;;8.11;63.77;101926.97;5094849;28;19963;-34
2022/05/03 02:40:25;;;;;;;;;;;;;;;8.10;63.45;101920.75;5095434;28;19920;-34
2022/05/03 02:42:53;;;;;;;;;;;;;;;8.07;64.23;101931.91;5094750;28;19920;-34
2022/05/03 02:45:19;;;;;;;;;;;;;;;8.05;63.52;101930.41;5094937;28;19912;-34
2022/05/03 02:47:48;;;;;;;;;;;;;;;8.01;64.03;101924.56;5094642;28;19973;-34
2022/05/03 02:50:14;;;;;;;;;;;;;;;7.97;64.39;101926.78;5095444;28;19934;-34
2022/05/03 02:52:57;;;;;;;;;;;;;;;7.93;64.72;101920.09;5094475;28;20002;-33
2022/05/03 02:55:41;;;;;;;;;;;;;;;7.90;63.82;101920.47;5095076;28;19912;-33
2022/05/03 02:58:10;;;;;;;;;;;;;;;7.87;63.88;101926.25;5094170;28;19969;-33
2022/05/03 03:03:55;;;;;;;;;;;;;;;7.81;64.59;101921.63;5094146;28;19974;-33
2022/05/03 03:06:22;;;;;;;;;;;;;;;7.81;63.77;101931.53;5094516;28;19937;-35
2022/05/03 03:08:48;;;;;;;;;;;;;;;7.81;64.97;101928.84;5094244;28;19958;-34
2022/05/03 03:11:40;;;;;;;;;;;;;;;7.78;64.52;101926.53;5094302;28;19998;-34
2022/05/03 03:14:08;;;;;;;;;;;;;;;7.76;64.31;101926.72;5091172;28;19998;-34
2022/05/03 03:16:38;;;;;;;;;;;;;;;7.74;64.35;101921.50;5094646;28;19916;-34
2022/05/03 03:19:23;;;;;;;;;;;;;;;7.73;64.59;101924.41;5094144;28;19912;-34
2022/05/03 03:21:48;;;;;;;;;;;;;;;7.68;64.68;101922.25;5011913;28;19913;-34
2022/05/03 03:24:16;;;;;;;;;;;;;;;7.68;64.87;101926.81;5012130;28;19924;-34
2022/05/03 03:26:43;;;;;;;;;;;;;;;7.62;65.56;101925.69;5012118;28;19932;-35
2022/05/03 03:29:09;;;;;;;;;;;;;;;7.61;65.24;101928.56;5012458;28;19925;-34
2022/05/03 03:31:35;;;;;;;;;;;;;;;7.59;65.47;101923.38;5011986;28;20044;-34
2022/05/03 03:34:01;;;;;;;;;;;;;;;7.55;64.62;101932.81;5012369;28;20051;-34
2022/05/03 03:36:26;;;;;;;;;;;;;;;7.53;65.69;101928.66;5011726;28;20389;-34
2022/05/03 03:38:51;;;;;;;;;;;;;;;7.51;65.39;101925.31;5010685;28;19917;-34
2022/05/03 03:41:17;;;;;;;;;;;;;;;7.52;64.76;101927.00;5012074;28;19917;-34
2022/05/03 03:43:42;;;;;;;;;;;;;;;7.49;64.84;101923.63;5011522;28;20408;-34
2022/05/03 03:46:07;;;;;;;;;;;;;;;7.47;64.81;101911.41;5011624;28;20394;-34
2022/05/03 03:48:33;;;;;;;;;;;;;;;7.46;64.84;101912.41;5011436;28;19917;-34
2022/05/03 03:50:59;;;;;;;;;;;;;;;7.44;64.59;101915.28;5011669;28;20461;-34
2022/05/03 03:53:25;;;;;;;;;;;;;;;7.43;64.65;101912.78;5011548;28;20385;-35
2022/05/03 03:55:50;;;;;;;;;;;;;;;7.43;64.59;101910.09;5011746;28;20008;-34
2022/05/03 03:58:17;;;;;;;;;;;;;;;7.41;64.64;101915.63;5031443;28;20249;-34
2022/05/03 04:00:42;;;;;;;;;;;;;;;7.42;64.75;101908.44;5093495;28;19912;-35
2022/05/03 04:03:07;;;;;;;;;;;;;;;7.42;64.92;101914.66;5093604;28;19912;-35
2022/05/03 04:05:34;;;;;;;;;;;;;;;7.40;64.99;101916.66;5093681;28;19967;-33
2022/05/03 04:07:59;;;;;;;;;;;;;;;7.35;65.22;101918.25;5093356;28;19912;-34
2022/05/03 04:10:24;;;;;;;;;;;;;;;7.34;65.69;101925.47;5093713;28;19935;-34
2022/05/03 04:12:50;;;;;;;;;;;;;;;7.30;65.00;101921.47;5093936;28;19912;-34
2022/05/03 04:15:15;;;;;;;;;;;;;;;7.27;65.04;101916.47;5093899;28;19957;-34
2022/05/03 04:17:40;;;;;;;;;;;;;;;7.25;65.51;101928.44;5094521;28;20008;-34
2022/05/03 04:20:06;;;;;;;;;;;;;;;7.23;65.83;101924.06;5093907;28;19919;-34
2022/05/03 04:22:32;;;;;;;;;;;;;;;7.22;66.56;101922.41;5092907;28;19912;-34
2022/05/03 04:24:58;;;;;;;;;;;;;;;7.22;65.59;101927.78;5092975;28;20010;-34
2022/05/03 04:27:23;;;;;;;;;;;;;;;7.22;65.40;101922.41;5092991;28;20054;-34
2022/05/03 04:29:49;;;;;;;;;;;;;;;7.23;65.38;101926.75;5075113;28;19912;-34
2022/05/03 04:32:15;;;;;;;;;;;;;;;7.26;65.67;101925.53;5094009;28;19916;-34
2022/05/03 04:34:40;;;;;;;;;;;;;;;7.25;65.66;101921.19;5093169;28;19912;-34
2022/05/03 04:37:05;;;;;;;;;;;;;;;7.26;65.92;101922.03;5093683;28;20344;-34
2022/05/03 04:39:30;;;;;;;;;;;;;;;7.26;65.68;101924.72;5092833;28;19948;-33
2022/05/03 04:41:56;;;;;;;;;;;;;;;7.25;65.82;101920.34;5093651;28;19912;-33
2022/05/03 04:44:21;;;;;;;;;;;;;;;7.27;66.25;101921.88;5093099;28;19912;-34
2022/05/03 04:46:46;;;;;;;;;;;;;;;7.30;66.06;101929.56;5093151;28;19923;-34
2022/05/03 04:49:11;;;;;;;;;;;;;;;7.34;65.45;101930.84;5093108;28;19918;-34
2022/05/03 04:51:37;;;;;;;;;;;;;;;7.38;65.59;101934.88;5096756;28;19998;-34
2022/05/03 04:54:02;;;;;;;;;;;;;;;7.40;65.87;101930.13;5097309;28;20271;-34
2022/05/03 04:56:27;;;;;;;;;;;;;;;7.42;67.39;101938.88;5096464;28;20431;-34
2022/05/03 04:58:56;;;;;;;;;;;;;;;7.43;66.57;101934.31;5096504;28;19919;-33
2022/05/03 05:01:21;;;;;;;;;;;;;;;7.48;66.64;101943.50;5096974;28;19912;-33
2022/05/03 05:03:47;;;;;;;;;;;;;;;7.55;66.04;101940.91;5096343;28;19934;-33
2022/05/03 05:06:13;;;;;;;;;;;;;;;7.63;66.83;101945.38;5096341;28;19912;-33
2022/05/03 05:08:39;;;;;;;;;;;;;;;7.68;68.84;101948.34;5096282;28;19920;-34
2022/05/03 05:11:04;;;;;;;;;;;;;;;7.67;66.65;101944.00;5096291;28;19912;-34
2022/05/03 05:13:30;;;;;;;;;;;;;;;7.71;69.55;101938.06;5078275;28;19912;-34
2022/05/03 05:15:55;;;;;;;;;;;;;;;7.75;68.22;101949.28;5077843;28;19916;-34
2022/05/03 05:18:20;;;;;;;;;;;;;;;7.82;67.67;101949.38;5096198;28;19912;-34
2022/05/03 05:20:46;;;;;;;;;;;;;;;7.91;69.32;101954.50;5096930;28;19921;-34
2022/05/03 05:23:11;;;;;;;;;;;;;;;7.94;67.95;101954.09;5096138;28;19912;-34
2022/05/03 05:25:36;;;;;;;;;;;;;;;7.99;67.37;101956.22;5096161;28;19966;-34
2022/05/03 05:28:01;;;;;;;;;;;;;;;8.07;68.39;101963.38;5096601;28;20015;-34
2022/05/03 05:30:26;;;;;;;;;;;;;;;8.10;69.51;101963.00;5096640;28;19951;-33
2022/05/03 05:32:52;;;;;;;;;;;;;;;8.15;68.41;101966.81;5096551;28;19991;-34
2022/05/03 05:35:17;;;;;;;;;;;;;;;8.19;68.59;101965.41;5095985;28;20310;-34
2022/05/03 05:37:42;;;;;;;;;;;;;;;8.22;69.03;101973.13;5095761;28;19965;-34
2022/05/03 05:40:08;;;;;;;;;;;;;;;8.27;68.04;101970.69;5096492;28;19912;-34
2022/05/03 05:42:34;;;;;;;;;;;;;;;8.32;68.58;101972.00;5096384;28;20288;-34
2022/05/03 05:44:59;;;;;;;;;;;;;;;8.36;68.80;101973.28;5096252;28;19912;-34
2022/05/03 05:47:24;;;;;;;;;;;;;;;8.46;68.16;101963.91;5078118;28;19966;-34
2022/05/03 05:49:49;;;;;;;;;;;;;;;8.51;69.05;101971.44;5096065;28;19916;-34
2022/05/03 05:54:58;;;;;;;;;;;;;;;8.72;68.72;101974.16;5096232;28;19958;-34
2022/05/03 05:57:24;;;;;;;;;;;;;;;8.75;68.06;101968.38;5096186;28;19912;-34
2022/05/03 05:59:49;;;;;;;;;;;;;;;8.77;66.94;101977.09;5095193;28;19916;-34
2022/05/03 06:02:14;;;;;;;;;;;;;;;8.78;67.64;101969.84;5094633;28;19919;-34
2022/05/03 06:04:39;;;;;;;;;;;;;;;8.75;67.05;101972.94;5095437;28;19912;-34
2022/05/03 06:07:05;;;;;;;;;;;;;;;8.71;68.40;101974.34;5095192;28;19912;-34
2022/05/03 06:09:30;;;;;;;;;;;;;;;8.69;67.57;101963.75;5095377;28;19962;-34
2022/05/03 06:11:55;;;;;;;;;;;;;;;8.74;66.82;101971.28;5076821;28;20058;-34
2022/05/03 06:14:20;;;;;;;;;;;;;;;8.82;66.96;101967.59;5095198;28;20021;-34
2022/05/03 06:16:53;;;;;;;;;;;;;;;8.97;67.24;101966.50;5094960;28;20570;-34
2022/05/03 06:19:18;;;;;;;;;;;;;;;9.10;66.33;101975.78;5095164;28;19912;-34
2022/05/03 06:21:43;;;;;;;;;;;;;;;9.15;66.73;101971.47;5095153;28;20014;-34
2022/05/03 06:24:08;;;;;;;;;;;;;;;9.27;65.75;101971.75;5094914;28;20406;-33
2022/05/03 06:26:34;;;;;;;;;;;;;;;9.44;65.13;101978.56;5095790;28;19912;-34
2022/05/03 06:29:03;;;;;;;;;;;;;;;9.59;65.04;101964.13;5094554;28;19912;-34
2022/05/03 06:31:28;;;;;;;;;;;;;;;9.71;64.83;101967.94;5095696;28;20355;-34
2022/05/03 06:33:54;;;;;;;;;;;;;;;9.80;64.29;101977.56;5094823;28;19912;-34
2022/05/03 06:36:19;;;;;;;;;;;;;;;9.93;63.51;101974.09;5095729;28;20362;-34
2022/05/03 06:38:44;;;;;;;;;;;;;;;10.05;64.31;101973.34;5094872;28;19958;-34
2022/05/03 06:41:12;;;;;;;;;;;;;;;10.15;63.58;101964.03;5077077;28;19912;-34
2022/05/03 06:43:37;;;;;;;;;;;;;;;10.15;62.76;101964.03;5094850;28;20343;-34
2022/05/03 06:46:03;;;;;;;;;;;;;;;10.16;62.98;101971.13;5094744;28;20002;-34
2022/05/03 06:48:28;;;;;;;;;;;;;;;10.27;62.72;101978.69;5095122;28;19912;-34
2022/05/03 06:50:53;;;;;;;;;;;;;;;10.38;62.39;101972.69;5095173;28;20371;-34
2022/05/03 06:53:18;;;;;;;;;;;;;;;10.49;61.43;101974.81;5094716;28;19912;-34
2022/05/03 06:55:43;;;;;;;;;;;;;;;10.56;58.01;101972.13;5095001;28;20349;-34
2022/05/03 06:58:09;;;;;;;;;;;;;;;10.60;57.32;101973.41;5094681;28;20431;-34
2022/05/03 07:00:34;;;;;;;;;;;;;;;10.69;58.73;101976.75;5095132;28;19919;-34
2022/05/03 07:02:59;;;;;;;;;;;;;;;10.77;57.18;101985.50;5094501;28;19944;-34
2022/05/03 07:05:24;;;;;;;;;;;;;;;10.87;56.43;101973.44;5094375;28;19989;-34
2022/05/03 07:07:50;;;;;;;;;;;;;;;10.95;56.24;101984.91;5094741;28;19997;-34
2022/05/03 07:10:15;;;;;;;;;;;;;;;11.03;56.85;101981.19;5094713;28;19912;-34
2022/05/03 07:12:40;;;;;;;;;;;;;;;11.16;55.33;101980.34;5094364;28;19919;-34
2022/05/03 07:15:06;;;;;;;;;;;;;;;11.13;52.40;101984.34;5075916;28;19912;-34
2022/05/03 07:22:59;;;;;;;;;;;;;;;11.39;48.71;101980.78;5094448;28;20356;-33
2022/05/03 07:25:25;;;;;;;;;;;;;;;11.42;52.24;101972.25;5093838;28;20011;-33
2022/05/03 07:27:51;;;;;;;;;;;;;;;11.52;52.69;101972.66;5093868;28;19942;-33
2022/05/03 07:30:18;;;;;;;;;;;;;;;11.65;51.32;101979.09;5094196;28;19962;-33
2022/05/03 07:32:44;;;;;;;;;;;;;;;11.72;51.67;101978.06;5093891;28;19919;-33
2022/05/03 07:35:09;;;;;;;;;;;;;;;11.78;51.94;101979.91;5076313;28;19959;-33
2022/05/03 07:37:35;;;;;;;;;;;;;;;11.88;52.41;101981.38;5094260;28;19912;-33
2022/05/03 07:40:01;;;;;;;;;;;;;;;11.97;52.79;101985.53;5094138;28;19912;-33
2022/05/03 07:42:26;;;;;;;;;;;;;;;12.07;52.50;101984.03;5094389;28;20336;-33
2022/05/03 07:44:51;;;;;;;;;;;;;;;12.22;50.97;101993.81;5093695;28;19912;-33
2022/05/03 07:47:16;;;;;;;;;;;;;;;12.28;52.19;101992.94;5093987;28;19916;-33
2022/05/03 07:49:43;;;;;;;;;;;;;;;12.41;50.42;101987.47;5093694;28;19912;-34
2022/05/03 07:52:08;;;;;;;;;;;;;;;12.52;51.25;101994.09;5093906;28;19934;-34
2022/05/03 07:54:34;;;;;;;;;;;;;;;12.54;50.81;101987.41;5093615;28;19912;-33
2022/05/03 07:56:59;;;;;;;;;;;;;;;12.68;51.99;101988.16;5093749;28;19912;-33
2022/05/03 07:59:25;;;;;;;;;;;;;;;12.79;50.07;101992.09;5093682;28;19926;-33
2022/05/03 08:01:51;;;;;;;;;;;;;;;12.88;51.12;101988.03;5094276;28;19912;-34
2022/05/03 08:04:17;;;;;;;;;;;;;;;12.96;51.21;101986.97;5093306;28;20283;-34
2022/05/03 08:06:42;;;;;;;;;;;;;;;13.02;50.48;101981.47;5093607;28;19912;-34
2022/05/03 08:09:07;;;;;;;;;;;;;;;13.09;51.86;101979.56;5093663;28;19912;-34
2022/05/03 08:11:32;;;;;;;;;;;;;;;13.22;50.94;101983.25;5093695;28;19916;-34
2022/05/03 08:13:58;;;;;;;;;;;;;;;13.30;49.27;101980.28;5093313;28;20364;-34
2022/05/03 08:16:23;;;;;;;;;;;;;;;13.34;50.76;101987.75;5093365;28;19923;-34
2022/05/03 08:18:49;;;;;;;;;;;;;;;13.40;50.82;101991.47;5093336;28;19919;-34
2022/05/03 08:21:15;;;;;;;;;;;;;;;13.53;50.35;101985.94;5093462;28;19965;-34
2022/05/03 08:23:40;;;;;;;;;;;;;;;13.64;50.34;101990.63;5093171;28;19912;-34
2022/05/03 08:26:05;;;;;;;;;;;;;;;13.74;49.53;101997.44;5096713;28;20267;-34
2022/05/03 08:28:31;;;;;;;;;;;;;;;13.61;47.71;101995.66;5097255;28;19916;-34
2022/05/03 08:30:57;;;;;;;;;;;;;;;13.68;49.98;101991.00;5097786;28;20370;-34
2022/05/03 08:33:22;;;;;;;;;;;;;;;13.75;48.67;101990.94;5097460;28;20390;-34
2022/05/03 08:35:48;;;;;;;;;;;;;;;13.85;49.30;101988.53;5097309;28;19951;-34
2022/05/03 08:43:42;;;;;;;;;;;;;;;14.12;50.32;101986.38;5097854;28;19918;-34
2022/05/03 08:46:08;;;;;;;;;;;;;;;14.22;50.49;101996.72;5096751;28;19915;-34
2022/05/03 08:48:35;;;;;;;;;;;;;;;14.34;50.83;101994.88;5097120;28;20020;-34
2022/05/03 08:51:00;;;;;;;;;;;;;;;14.46;49.90;101994.97;5097814;28;19912;-34
2022/05/03 08:53:26;;;;;;;;;;;;;;;14.56;50.46;101989.84;5097026;28;19977;-34
2022/05/03 08:55:52;;;;;;;;;;;;;;;14.67;49.59;101987.16;5097329;28;19912;-34
2022/05/03 08:58:18;;;;;;;;;;;;;;;14.71;48.99;101982.09;5096694;28;19922;-34
2022/05/03 09:00:43;;;;;;;;;;;;;;;14.74;49.48;101987.09;5096721;28;19926;-34
2022/05/03 09:03:08;;;;;;;;;;;;;;;14.81;49.86;101995.16;5096851;28;19919;-34
2022/05/03 09:05:33;;;;;;;;;;;;;;;14.83;49.72;101985.66;5096962;28;20379;-34
2022/05/03 09:07:59;;;;;;;;;;;;;;;14.86;49.36;101981.66;5097179;28;19912;-34
2022/05/03 09:10:29;;;;;;;;;;;;;;;15.01;50.34;101983.97;5096978;28;19918;-34
2022/05/03 09:13:11;;;;;;;;;;;;;;;15.16;50.26;101982.47;5096625;28;20026;-34
2022/05/03 09:15:36;;;;;;;;;;;;;;;15.37;50.73;101986.53;5094250;28;20007;-34
2022/05/03 09:19:56;;;;;;;5.68;3.83;;;;;;;15.60;50.79;101976.69;5091253;27;20436;-34
2022/05/03 09:25:12;;;;;;;5.15;3.97;;;;;;;15.72;49.23;101963.13;5070344;28;19915;-34
2022/05/03 09:27:38;;;;;;;5.55;4.20;;;;;;;15.91;48.34;101981.00;5078856;28;20040;-34
2022/05/03 09:30:07;;;;;;;;;;;;;;;16.04;49.08;101975.28;5090488;28;20040;-34
2022/05/03 09:32:40;;;;;;;4.40;3.38;;;;;;;16.11;48.62;101986.91;5090854;28;19912;-34
2022/05/03 09:35:07;;;;;;;4.18;3.67;;;;;;;16.18;48.07;101987.59;5090505;28;20119;-33
2022/05/03 09:37:42;;;;;;;7.25;4.00;;;;;;;16.39;48.04;101983.38;5090352;28;20389;-34
2022/05/03 09:40:09;;;;;;;4.30;3.90;;;;;;;16.36;47.34;101977.59;5089912;28;20024;-34
2022/05/03 09:42:40;;;;;;;4.53;3.45;;;;;;;16.53;47.09;101972.16;5088702;28;20032;-34
2022/05/03 09:45:08;;;;;;;4.07;3.70;;;;;;;16.77;47.57;101981.94;5089252;28;20020;-34
2022/05/03 09:47:51;;;;;;;4.43;3.58;;;;;;;16.85;47.71;101975.28;5090148;28;20044;-35
2022/05/03 09:50:47;;;;;;;4.78;4.20;;;;;;;16.80;47.18;101980.66;5090119;28;20020;-35
2022/05/03 09:53:21;;;;;;;4.75;4.22;;;;;;;16.81;47.94;101977.66;5089974;28;20119;-34
2022/05/03 09:55:48;;;;;;;4.75;4.18;;;;;;;16.70;47.40;101964.88;5089039;28;20051;-34
2022/05/03 09:58:17;;;;;;;5.55;4.15;;;;;;;16.77;47.40;101964.75;5090093;28;20024;-34
2022/05/03 10:00:46;;;;;;;4.05;3.63;;;;;;;16.87;47.17;101981.31;5090853;28;20374;-34
2022/05/03 10:03:12;;;;;;;3.63;3.30;;;;;;;17.01;46.75;101977.19;5090194;28;20055;-34
2022/05/03 10:05:38;;;;;;;;;;;;;;;17.28;46.34;101979.31;5091297;28;20472;-34
2022/05/03 10:08:05;;;;;;;4.27;3.17;;;;;;;17.31;46.70;101978.78;5090174;28;19909;-34
2022/05/03 10:10:31;;;;;;;3.65;3.35;;;;;;;17.10;46.25;101974.91;5090351;28;20054;-34
2022/05/03 10:12:58;;;;;;;4.18;3.22;;;;;;;17.12;46.37;101970.81;5089762;28;20447;-34
2022/05/03 10:21:12;;;;;;;3.88;2.70;;;;;;;17.11;48.13;101971.91;5089742;28;20131;-34
2022/05/03 10:23:38;;;;;;;4.00;3.33;;;;;;;17.33;47.15;101971.19;5088819;28;20497;-34
2022/05/03 10:26:08;;;;;;;;;;;;;;;17.57;46.60;101967.19;5089641;28;20035;-35
2022/05/03 10:29:08;;;;;;;4.28;3.88;;;;;;;17.49;47.32;101964.88;5089282;28;19912;-35
2022/05/03 10:32:08;;;;;;;3.75;3.38;;;;;;;17.97;46.67;101964.22;5075261;28;20031;-35
2022/05/03 10:34:45;;;;;;;3.08;2.45;;;;;;;17.85;44.94;101951.72;5076267;28;20035;-35
2022/05/03 10:37:34;;;;;;;3.03;2.58;;;;;;;17.64;45.96;101953.34;5076337;28;20024;-35
2022/05/03 10:40:07;;;;;;;3.28;2.47;;;;;;;16.89;45.24;101949.13;5075765;28;20536;-35
2022/05/03 10:42:33;;;;;;;2.80;2.47;;;;;;;17.46;46.54;101954.41;5076455;28;20107;-35
2022/05/03 10:45:05;;;;;;;;;;;;;;;17.91;45.96;101943.38;5076025;28;20391;-35
2022/05/03 10:47:54;;;;;;;3.45;2.63;;;;;;;18.28;46.70;101949.00;5074997;28;20280;-35
2022/05/03 10:50:34;;;;;;;3.40;3.10;;;;;;;18.74;45.83;101948.75;5075924;28;20081;-34
2022/05/03 10:52:59;;;;;;;4.63;3.40;;;;;;;18.62;44.15;101945.28;5075904;28;20035;-35
2022/05/03 10:55:37;;;;;;;4.97;3.80;;;;;;;18.52;45.08;101940.50;5075226;28;20033;-35
2022/05/03 10:58:24;;;;;;;4.30;3.90;;;;;;;18.49;45.34;101935.53;5075915;28;20027;-35
2022/05/03 11:01:09;;;;;;;4.82;3.92;;;;;;;18.08;45.90;101943.28;5075795;28;20482;-35
2022/05/03 11:03:40;;;;;;;4.22;3.30;;;;;;;17.91;45.58;101937.03;5075701;28;20051;-35
2022/05/03 11:06:38;;;;;;;4.07;3.70;;;;;;;17.72;46.13;101940.06;5075610;28;20024;-35
2022/05/03 11:11:37;;;;;;;;;;;;;;;17.52;47.22;101939.78;5075548;28;20043;-34
2022/05/03 11:14:03;;;;;;;4.97;4.47;;;;;;;17.22;49.28;101930.00;5075615;28;19931;-35
2022/05/03 11:16:34;;;;;;;;;;;;;;;17.65;48.71;101933.94;5076165;28;20453;-35
2022/05/03 11:19:09;;;;;;;4.93;4.47;;;;;;;18.02;46.98;101920.50;5075229;28;19916;-35
2022/05/03 11:21:34;;;;;;;6.20;4.55;;;;;;;18.23;46.31;101916.09;5074870;28;20085;-35
2022/05/03 11:24:00;;;;;;;;;;;;;;;18.61;46.36;101918.97;5076087;28;20020;-35
2022/05/03 11:26:26;;;;;;;4.90;4.13;;;;;;;18.72;46.15;101907.88;5074838;28;19913;-35
2022/05/03 11:28:52;;;;;;;;;;;;;;;19.11;45.40;101907.66;5075135;28;20032;-35
2022/05/03 11:31:20;;;;;;;4.53;4.00;;;;;;;18.77;45.08;101907.91;5075417;28;19924;-35
2022/05/03 11:33:52;;;;;;;4.78;4.28;;;;;;;19.14;44.88;101909.88;5074550;28;20125;-35
2022/05/03 11:36:22;;;;;;;4.97;4.47;;;;;;;19.56;43.87;101906.31;5073447;28;20040;-35
2022/05/03 11:38:53;;;;;;;4.80;4.10;;;;;;;19.62;42.93;101908.06;5074633;28;20447;-35
2022/05/03 11:41:26;;;;;;;4.47;3.53;;;;;;;19.64;43.11;101903.09;5073901;28;20031;-35
2022/05/03 11:43:52;;;;;;;3.60;3.25;;;;;;;19.30;42.76;101886.13;5074095;28;20031;-35
2022/05/03 11:46:19;;;;;;;6.63;3.92;;;;;;;19.13;43.14;101902.75;5074740;28;20112;-35
2022/05/03 11:48:49;;;;;;;4.03;3.63;;;;;;;18.98;43.42;101895.25;5074682;28;20040;-35
2022/05/03 11:56:48;;;;;;;4.57;3.67;;;;;;;19.69;44.00;101869.38;5074145;28;20097;-34
2022/05/03 11:59:14;;;;;;;6.15;2.95;;;;;;;19.67;42.12;101879.81;5073918;28;20457;-34
2022/05/03 12:01:40;;;;;;;3.58;2.80;;;;;;;19.61;42.53;101881.69;5074267;28;20032;-34
2022/05/03 12:04:08;;;;;;;5.40;3.80;;;;;;;19.35;43.30;101868.91;5074016;28;20427;-34
2022/05/03 12:06:48;;;;;;;5.78;4.03;;;;;;;19.09;43.79;101879.69;5074053;28;20028;-34
2022/05/03 12:09:18;;;;;;;4.80;4.30;;;;;;;18.89;44.75;101868.56;5074739;28;20342;-34
2022/05/03 12:14:42;;;;;;;5.72;5.15;;;;;;;18.45;46.96;101864.03;5074338;28;20059;-34
2022/05/03 12:17:08;;;;;;;6.40;5.30;;;;;;;18.28;47.90;101877.81;5073444;28;20480;-34
2022/05/03 12:19:37;;;;;;;6.10;5.47;;;;;;;18.44;47.23;101877.97;5074134;28;20461;-34
2022/05/03 12:22:13;;;;;;;6.45;5.90;;;;;;;18.25;47.63;101866.56;5073721;28;20028;-34
2022/05/03 12:24:41;;;;;;;6.13;5.40;;;;;;;18.17;47.71;101861.56;5073507;28;20028;-34
2022/05/03 12:27:15;;;;;;;6.05;5.55;;;;;;;18.24;48.04;101875.84;5073802;28;20028;-34
2022/05/03 12:29:43;;;;;;;5.45;4.95;;;;;;;18.16;47.84;101871.69;5073467;28;20036;-34
2022/05/03 12:32:16;;;;;;;6.50;5.75;;;;;;;18.11;47.14;101860.69;5073975;28;20032;-34
2022/05/03 12:34:55;;;;;;;5.25;4.75;;;;;;;18.20;47.35;101856.41;5073972;28;20029;-34
2022/05/03 12:37:20;;;;;;;6.78;5.53;;;;;;;18.04;48.09;101849.09;5073494;28;20036;-34
2022/05/03 12:39:46;;;;;;;6.03;5.43;;;;;;;18.47;47.43;101858.31;5073856;28;20151;-34
2022/05/03 12:42:12;;;;;;;;;;;;;;;18.88;46.76;101850.47;5074415;28;20060;-34
2022/05/03 12:44:49;;;;;;;4.78;4.22;;;;;;;19.22;44.71;101854.53;5073336;28;19909;-34
2022/05/03 12:47:15;;;;;;;6.78;4.50;;;;;;;19.30;44.37;101847.75;5073321;28;20020;-34
2022/05/03 12:49:41;;;;;;;5.00;3.92;;;;;;;19.32;43.38;101842.00;5073248;28;20035;-34
2022/05/03 12:52:06;;;;;;;4.80;3.60;;;;;;;19.37;43.65;101840.09;5073784;28;20059;-34
2022/05/03 12:54:32;;;;;;;4.78;3.75;;;;;;;19.25;44.56;101829.34;5072917;28;20033;-34
2022/05/03 12:59:42;;;;;;;5.13;3.92;;;;;;;19.00;44.14;101840.16;5072853;28;20043;-35
2022/05/03 13:02:07;;;;;;;4.40;4.00;;;;;;;18.75;44.45;101836.13;5073520;28;20381;-34
2022/05/03 13:04:33;;;;;;;4.78;3.75;;;;;;;18.79;44.87;101836.44;5073139;28;20461;-34
2022/05/03 13:06:58;;;;;;;;;;;;;;;19.00;45.24;101834.66;5074273;28;20032;-34
2022/05/03 13:09:24;;;;;;;8.05;5.13;;;;;;;18.59;45.37;101817.03;5073047;28;20361;-34
2022/05/03 13:11:50;;;;;;;;;;;;;;;18.75;45.71;101829.81;5073567;28;20080;-35
2022/05/03 13:14:16;;;;;;;6.07;4.97;;;;;;;18.63;46.97;101832.69;5073193;28;20016;-35
2022/05/03 13:16:41;;;;;;;6.25;5.28;;;;;;;18.50;46.37;101824.94;5072826;28;20020;-34
2022/05/03 13:19:07;;;;;;;6.85;5.07;;;;;;;18.41;47.31;101841.00;5071631;28;20071;-34